sensor_id;sensor_type;location;lat;lon;timestamp;P1;durP1;ratioP1;P2;durP2;ratioP2
32152;SDS011;18656;50.580;11.392;2022-08-25T00:01:38;13.27;;;11.40;;
32152;SDS011;18656;50.580;11.392;2022-08-25T00:04:07;18.08;;;11.40;;
32152;SDS011;18656;50.580;11.392;2022-08-25T00:06:39;11.80;;;10.63;;
32152;SDS011;18656;50.580;11.392;2022-08-25T00:09:09;13.30;;;11.75;;
32152;SDS011;18656;50.580;11.392;2022-08-25T00:11:37;15.45;;;11.55;;
32152;SDS011;18656;50.580;11.392;2022-08-25T00:14:10;15.07;;;12.63;;
32152;SDS011;18656;50.580;11.392;2022-08-25T00:16:38;13.52;;;11.70;;
32152;SDS011;18656;50.580;11.392;2022-08-25T00:19:07;13.55;;;12.15;;
32152;SDS011;18656;50.580;11.392;2022-08-25T00:21:35;13.18;;;11.85;;
32152;SDS011;18656;50.580;11.392;2022-08-25T00:24:03;14.10;;;12.60;;
32152;SDS011;18656;50.580;11.392;2022-08-25T00:26:40;13.77;;;12.10;;
32152;SDS011;18656;50.580;11.392;2022-08-25T00:29:11;12.80;;;11.50;;
32152;SDS011;18656;50.580;11.392;2022-08-25T00:31:41;15.02;;;12.30;;
32152;SDS011;18656;50.580;11.392;2022-08-25T00:34:17;14.05;;;12.52;;
32152;SDS011;18656;50.580;11.392;2022-08-25T00:36:45;14.45;;;12.98;;
32152;SDS011;18656;50.580;11.392;2022-08-25T00:39:18;24.98;;;14.68;;
32152;SDS011;18656;50.580;11.392;2022-08-25T00:41:54;16.65;;;13.20;;
32152;SDS011;18656;50.580;11.392;2022-08-25T00:44:25;14.93;;;13.00;;
32152;SDS011;18656;50.580;11.392;2022-08-25T00:46:55;17.83;;;14.70;;
32152;SDS011;18656;50.580;11.392;2022-08-25T00:49:35;16.00;;;14.32;;
32152;SDS011;18656;50.580;11.392;2022-08-25T00:52:13;13.65;;;12.43;;
32152;SDS011;18656;50.580;11.392;2022-08-25T00:55:04;17.95;;;13.30;;
32152;SDS011;18656;50.580;11.392;2022-08-25T00:57:38;16.38;;;13.65;;
32152;SDS011;18656;50.580;11.392;2022-08-25T01:00:08;14.83;;;13.40;;
32152;SDS011;18656;50.580;11.392;2022-08-25T01:02:37;15.45;;;13.85;;
32152;SDS011;18656;50.580;11.392;2022-08-25T01:05:04;17.30;;;13.90;;
32152;SDS011;18656;50.580;11.392;2022-08-25T01:07:32;15.95;;;14.02;;
32152;SDS011;18656;50.580;11.392;2022-08-25T01:10:02;16.83;;;14.35;;
32152;SDS011;18656;50.580;11.392;2022-08-25T01:12:29;18.70;;;13.68;;
32152;SDS011;18656;50.580;11.392;2022-08-25T01:14:57;15.15;;;13.40;;
32152;SDS011;18656;50.580;11.392;2022-08-25T01:17:24;15.60;;;13.98;;
32152;SDS011;18656;50.580;11.392;2022-08-25T01:19:53;14.88;;;13.48;;
32152;SDS011;18656;50.580;11.392;2022-08-25T01:22:21;16.88;;;14.45;;
32152;SDS011;18656;50.580;11.392;2022-08-25T01:27:19;15.13;;;13.52;;
32152;SDS011;18656;50.580;11.392;2022-08-25T01:29:49;15.05;;;13.45;;
32152;SDS011;18656;50.580;11.392;2022-08-25T01:32:16;15.52;;;13.70;;
32152;SDS011;18656;50.580;11.392;2022-08-25T01:34:44;15.85;;;13.25;;
32152;SDS011;18656;50.580;11.392;2022-08-25T01:37:13;16.73;;;14.77;;
32152;SDS011;18656;50.580;11.392;2022-08-25T01:39:41;14.50;;;13.00;;
32152;SDS011;18656;50.580;11.392;2022-08-25T01:44:40;17.05;;;13.43;;
32152;SDS011;18656;50.580;11.392;2022-08-25T01:47:08;14.88;;;13.30;;
32152;SDS011;18656;50.580;11.392;2022-08-25T01:49:40;19.50;;;15.27;;
32152;SDS011;18656;50.580;11.392;2022-08-25T01:52:24;18.20;;;15.30;;
32152;SDS011;18656;50.580;11.392;2022-08-25T01:54:51;18.52;;;15.65;;
32152;SDS011;18656;50.580;11.392;2022-08-25T01:57:30;16.10;;;14.23;;
32152;SDS011;18656;50.580;11.392;2022-08-25T01:59:57;17.50;;;14.80;;
32152;SDS011;18656;50.580;11.392;2022-08-25T02:02:27;16.50;;;14.80;;
32152;SDS011;18656;50.580;11.392;2022-08-25T02:04:58;17.98;;;15.35;;
32152;SDS011;18656;50.580;11.392;2022-08-25T02:07:25;15.50;;;14.00;;
32152;SDS011;18656;50.580;11.392;2022-08-25T02:09:53;16.30;;;14.57;;
32152;SDS011;18656;50.580;11.392;2022-08-25T02:12:23;17.23;;;15.30;;
32152;SDS011;18656;50.580;11.392;2022-08-25T02:14:51;18.40;;;15.90;;
32152;SDS011;18656;50.580;11.392;2022-08-25T02:17:18;18.65;;;14.70;;
32152;SDS011;18656;50.580;11.392;2022-08-25T02:19:54;17.85;;;15.50;;
32152;SDS011;18656;50.580;11.392;2022-08-25T02:22:22;20.63;;;15.98;;
32152;SDS011;18656;50.580;11.392;2022-08-25T02:24:53;18.38;;;16.23;;
32152;SDS011;18656;50.580;11.392;2022-08-25T02:27:23;21.17;;;16.20;;
32152;SDS011;18656;50.580;11.392;2022-08-25T02:29:50;16.85;;;15.18;;
32152;SDS011;18656;50.580;11.392;2022-08-25T02:32:20;16.75;;;15.00;;
32152;SDS011;18656;50.580;11.392;2022-08-25T02:34:52;19.00;;;14.77;;
32152;SDS011;18656;50.580;11.392;2022-08-25T02:37:22;17.55;;;15.73;;
32152;SDS011;18656;50.580;11.392;2022-08-25T02:39:55;18.88;;;16.45;;
32152;SDS011;18656;50.580;11.392;2022-08-25T02:42:36;20.83;;;16.20;;
32152;SDS011;18656;50.580;11.392;2022-08-25T02:45:08;18.38;;;15.98;;
32152;SDS011;18656;50.580;11.392;2022-08-25T02:47:35;17.67;;;15.88;;
32152;SDS011;18656;50.580;11.392;2022-08-25T02:50:03;19.42;;;16.05;;
32152;SDS011;18656;50.580;11.392;2022-08-25T02:52:31;18.52;;;16.55;;
32152;SDS011;18656;50.580;11.392;2022-08-25T02:54:58;20.33;;;16.55;;
32152;SDS011;18656;50.580;11.392;2022-08-25T02:57:28;17.55;;;15.73;;
32152;SDS011;18656;50.580;11.392;2022-08-25T03:00:11;25.20;;;18.15;;
32152;SDS011;18656;50.580;11.392;2022-08-25T03:02:49;21.90;;;16.45;;
32152;SDS011;18656;50.580;11.392;2022-08-25T03:05:17;20.45;;;18.00;;
32152;SDS011;18656;50.580;11.392;2022-08-25T03:07:44;17.92;;;15.85;;
32152;SDS011;18656;50.580;11.392;2022-08-25T03:10:14;17.38;;;15.35;;
32152;SDS011;18656;50.580;11.392;2022-08-25T03:12:56;19.88;;;16.95;;
32152;SDS011;18656;50.580;11.392;2022-08-25T03:15:23;18.58;;;16.25;;
32152;SDS011;18656;50.580;11.392;2022-08-25T03:17:58;17.83;;;16.13;;
32152;SDS011;18656;50.580;11.392;2022-08-25T03:20:28;21.58;;;17.30;;
32152;SDS011;18656;50.580;11.392;2022-08-25T03:22:56;21.27;;;18.25;;
32152;SDS011;18656;50.580;11.392;2022-08-25T03:25:25;18.85;;;16.27;;
32152;SDS011;18656;50.580;11.392;2022-08-25T03:28:11;22.35;;;17.90;;
32152;SDS011;18656;50.580;11.392;2022-08-25T03:30:40;21.17;;;18.10;;
32152;SDS011;18656;50.580;11.392;2022-08-25T03:33:10;21.70;;;16.95;;
32152;SDS011;18656;50.580;11.392;2022-08-25T03:35:40;21.77;;;17.23;;
32152;SDS011;18656;50.580;11.392;2022-08-25T03:38:13;19.80;;;16.95;;
32152;SDS011;18656;50.580;11.392;2022-08-25T03:40:43;18.85;;;16.95;;
32152;SDS011;18656;50.580;11.392;2022-08-25T03:43:16;18.88;;;16.92;;
32152;SDS011;18656;50.580;11.392;2022-08-25T03:45:44;23.08;;;19.05;;
32152;SDS011;18656;50.580;11.392;2022-08-25T03:48:20;25.60;;;19.23;;
32152;SDS011;18656;50.580;11.392;2022-08-25T03:50:49;25.80;;;19.73;;
32152;SDS011;18656;50.580;11.392;2022-08-25T03:53:17;17.55;;;15.73;;
32152;SDS011;18656;50.580;11.392;2022-08-25T03:55:45;21.98;;;16.60;;
32152;SDS011;18656;50.580;11.392;2022-08-25T03:58:12;23.40;;;16.08;;
32152;SDS011;18656;50.580;11.392;2022-08-25T04:00:40;19.45;;;16.33;;
32152;SDS011;18656;50.580;11.392;2022-08-25T04:03:07;18.88;;;16.10;;
32152;SDS011;18656;50.580;11.392;2022-08-25T04:05:34;18.58;;;16.63;;
32152;SDS011;18656;50.580;11.392;2022-08-25T04:08:02;19.00;;;16.42;;
32152;SDS011;18656;50.580;11.392;2022-08-25T04:10:30;18.70;;;16.15;;
32152;SDS011;18656;50.580;11.392;2022-08-25T04:12:58;20.38;;;16.23;;
32152;SDS011;18656;50.580;11.392;2022-08-25T04:15:26;20.38;;;16.85;;
32152;SDS011;18656;50.580;11.392;2022-08-25T04:17:55;19.70;;;17.00;;
32152;SDS011;18656;50.580;11.392;2022-08-25T04:20:24;18.83;;;16.75;;
32152;SDS011;18656;50.580;11.392;2022-08-25T04:22:54;19.48;;;17.38;;
32152;SDS011;18656;50.580;11.392;2022-08-25T04:25:25;21.98;;;19.27;;
32152;SDS011;18656;50.580;11.392;2022-08-25T04:27:53;21.38;;;18.77;;
32152;SDS011;18656;50.580;11.392;2022-08-25T04:30:21;19.55;;;17.27;;
32152;SDS011;18656;50.580;11.392;2022-08-25T04:32:49;22.20;;;17.23;;
32152;SDS011;18656;50.580;11.392;2022-08-25T04:35:16;25.15;;;18.98;;
32152;SDS011;18656;50.580;11.392;2022-08-25T04:37:59;22.15;;;18.08;;
32152;SDS011;18656;50.580;11.392;2022-08-25T04:40:27;20.48;;;18.23;;
32152;SDS011;18656;50.580;11.392;2022-08-25T04:42:55;19.35;;;17.08;;
32152;SDS011;18656;50.580;11.392;2022-08-25T04:45:25;20.52;;;17.80;;
32152;SDS011;18656;50.580;11.392;2022-08-25T04:47:52;23.05;;;18.60;;
32152;SDS011;18656;50.580;11.392;2022-08-25T04:50:26;21.33;;;18.27;;
32152;SDS011;18656;50.580;11.392;2022-08-25T04:52:53;22.05;;;19.80;;
32152;SDS011;18656;50.580;11.392;2022-08-25T04:55:21;30.27;;;23.92;;
32152;SDS011;18656;50.580;11.392;2022-08-25T04:57:49;31.70;;;22.60;;
32152;SDS011;18656;50.580;11.392;2022-08-25T05:00:18;36.13;;;29.48;;
32152;SDS011;18656;50.580;11.392;2022-08-25T05:02:46;48.70;;;40.45;;
32152;SDS011;18656;50.580;11.392;2022-08-25T05:05:14;52.70;;;42.92;;
32152;SDS011;18656;50.580;11.392;2022-08-25T05:07:42;27.60;;;23.27;;
32152;SDS011;18656;50.580;11.392;2022-08-25T05:10:10;19.30;;;16.85;;
32152;SDS011;18656;50.580;11.392;2022-08-25T05:12:38;16.33;;;14.80;;
32152;SDS011;18656;50.580;11.392;2022-08-25T05:15:06;17.67;;;15.77;;
32152;SDS011;18656;50.580;11.392;2022-08-25T05:17:53;16.02;;;13.35;;
32152;SDS011;18656;50.580;11.392;2022-08-25T05:20:21;24.52;;;17.95;;
32152;SDS011;18656;50.580;11.392;2022-08-25T05:22:49;16.25;;;11.63;;
32152;SDS011;18656;50.580;11.392;2022-08-25T05:25:17;20.13;;;12.20;;
32152;SDS011;18656;50.580;11.392;2022-08-25T05:27:44;17.73;;;11.68;;
32152;SDS011;18656;50.580;11.392;2022-08-25T05:30:11;11.30;;;10.07;;
32152;SDS011;18656;50.580;11.392;2022-08-25T05:32:42;9.80;;;8.85;;
32152;SDS011;18656;50.580;11.392;2022-08-25T05:35:11;9.35;;;8.40;;
32152;SDS011;18656;50.580;11.392;2022-08-25T05:37:38;17.80;;;9.82;;
32152;SDS011;18656;50.580;11.392;2022-08-25T05:40:05;10.10;;;8.98;;
32152;SDS011;18656;50.580;11.392;2022-08-25T05:42:34;9.68;;;8.68;;
32152;SDS011;18656;50.580;11.392;2022-08-25T05:45:03;11.57;;;8.93;;
32152;SDS011;18656;50.580;11.392;2022-08-25T05:47:32;10.25;;;8.50;;
32152;SDS011;18656;50.580;11.392;2022-08-25T05:49:59;8.73;;;7.30;;
32152;SDS011;18656;50.580;11.392;2022-08-25T05:52:27;8.50;;;7.45;;
32152;SDS011;18656;50.580;11.392;2022-08-25T05:54:55;7.65;;;7.03;;
32152;SDS011;18656;50.580;11.392;2022-08-25T05:57:24;10.27;;;7.47;;
32152;SDS011;18656;50.580;11.392;2022-08-25T05:59:52;19.73;;;8.50;;
32152;SDS011;18656;50.580;11.392;2022-08-25T06:02:19;12.80;;;7.60;;
32152;SDS011;18656;50.580;11.392;2022-08-25T06:05:05;9.75;;;7.63;;
32152;SDS011;18656;50.580;11.392;2022-08-25T06:07:36;17.05;;;8.27;;
32152;SDS011;18656;50.580;11.392;2022-08-25T06:10:04;26.42;;;9.40;;
32152;SDS011;18656;50.580;11.392;2022-08-25T06:12:33;34.30;;;9.43;;
32152;SDS011;18656;50.580;11.392;2022-08-25T06:15:02;39.67;;;10.05;;
32152;SDS011;18656;50.580;11.392;2022-08-25T06:17:30;29.95;;;9.75;;
32152;SDS011;18656;50.580;11.392;2022-08-25T06:20:00;34.75;;;9.68;;
32152;SDS011;18656;50.580;11.392;2022-08-25T06:22:32;40.58;;;11.07;;
32152;SDS011;18656;50.580;11.392;2022-08-25T06:24:59;35.45;;;10.52;;
32152;SDS011;18656;50.580;11.392;2022-08-25T06:27:30;47.63;;;11.55;;
32152;SDS011;18656;50.580;11.392;2022-08-25T06:29:57;38.08;;;10.20;;
32152;SDS011;18656;50.580;11.392;2022-08-25T06:32:34;59.20;;;12.90;;
32152;SDS011;18656;50.580;11.392;2022-08-25T06:35:05;42.95;;;12.30;;
32152;SDS011;18656;50.580;11.392;2022-08-25T06:37:33;27.00;;;11.40;;
32152;SDS011;18656;50.580;11.392;2022-08-25T06:40:02;28.00;;;11.95;;
32152;SDS011;18656;50.580;11.392;2022-08-25T06:42:30;35.50;;;12.52;;
32152;SDS011;18656;50.580;11.392;2022-08-25T06:44:58;37.53;;;13.32;;
32152;SDS011;18656;50.580;11.392;2022-08-25T06:47:26;33.60;;;12.52;;
32152;SDS011;18656;50.580;11.392;2022-08-25T06:49:54;35.08;;;11.98;;
32152;SDS011;18656;50.580;11.392;2022-08-25T06:52:22;35.78;;;13.80;;
32152;SDS011;18656;50.580;11.392;2022-08-25T06:54:54;49.72;;;14.35;;
32152;SDS011;18656;50.580;11.392;2022-08-25T06:57:22;35.28;;;13.02;;
32152;SDS011;18656;50.580;11.392;2022-08-25T06:59:49;31.45;;;12.00;;
32152;SDS011;18656;50.580;11.392;2022-08-25T07:02:19;26.48;;;12.02;;
32152;SDS011;18656;50.580;11.392;2022-08-25T07:04:48;26.08;;;11.18;;
32152;SDS011;18656;50.580;11.392;2022-08-25T07:07:19;27.63;;;12.02;;
32152;SDS011;18656;50.580;11.392;2022-08-25T07:09:47;29.08;;;12.20;;
32152;SDS011;18656;50.580;11.392;2022-08-25T07:12:15;20.30;;;12.35;;
32152;SDS011;18656;50.580;11.392;2022-08-25T07:14:43;16.05;;;11.02;;
32152;SDS011;18656;50.580;11.392;2022-08-25T07:17:32;19.02;;;11.15;;
32152;SDS011;18656;50.580;11.392;2022-08-25T07:20:01;23.80;;;10.85;;
32152;SDS011;18656;50.580;11.392;2022-08-25T07:22:31;13.57;;;10.13;;
32152;SDS011;18656;50.580;11.392;2022-08-25T07:25:12;12.15;;;9.40;;
32152;SDS011;18656;50.580;11.392;2022-08-25T07:27:53;11.38;;;9.63;;
32152;SDS011;18656;50.580;11.392;2022-08-25T07:30:25;11.90;;;8.75;;
32152;SDS011;18656;50.580;11.392;2022-08-25T07:32:56;18.73;;;9.40;;
32152;SDS011;18656;50.580;11.392;2022-08-25T07:35:28;18.80;;;9.93;;
32152;SDS011;18656;50.580;11.392;2022-08-25T07:38:05;12.52;;;7.85;;
32152;SDS011;18656;50.580;11.392;2022-08-25T07:40:48;12.45;;;8.00;;
32152;SDS011;18656;50.580;11.392;2022-08-25T07:43:24;14.35;;;8.40;;
32152;SDS011;18656;50.580;11.392;2022-08-25T07:45:55;9.15;;;8.13;;
32152;SDS011;18656;50.580;11.392;2022-08-25T07:48:26;12.95;;;8.27;;
32152;SDS011;18656;50.580;11.392;2022-08-25T07:50:57;10.50;;;7.80;;
32152;SDS011;18656;50.580;11.392;2022-08-25T07:53:30;12.20;;;8.45;;
32152;SDS011;18656;50.580;11.392;2022-08-25T07:55:58;11.45;;;7.82;;
32152;SDS011;18656;50.580;11.392;2022-08-25T07:58:25;10.93;;;8.10;;
32152;SDS011;18656;50.580;11.392;2022-08-25T08:00:53;16.63;;;8.93;;
32152;SDS011;18656;50.580;11.392;2022-08-25T08:03:21;13.20;;;9.25;;
32152;SDS011;18656;50.580;11.392;2022-08-25T08:06:09;10.85;;;7.90;;
32152;SDS011;18656;50.580;11.392;2022-08-25T08:08:38;15.25;;;8.27;;
32152;SDS011;18656;50.580;11.392;2022-08-25T08:11:23;10.05;;;8.55;;
32152;SDS011;18656;50.580;11.392;2022-08-25T08:13:53;9.68;;;7.78;;
32152;SDS011;18656;50.580;11.392;2022-08-25T08:16:24;14.95;;;8.43;;
32152;SDS011;18656;50.580;11.392;2022-08-25T08:18:55;9.43;;;6.97;;
32152;SDS011;18656;50.580;11.392;2022-08-25T08:21:32;10.35;;;6.45;;
32152;SDS011;18656;50.580;11.392;2022-08-25T08:24:08;7.85;;;6.70;;
32152;SDS011;18656;50.580;11.392;2022-08-25T08:26:56;11.00;;;5.50;;
32152;SDS011;18656;50.580;11.392;2022-08-25T08:29:24;9.75;;;6.40;;
32152;SDS011;18656;50.580;11.392;2022-08-25T08:32:07;11.48;;;6.40;;
32152;SDS011;18656;50.580;11.392;2022-08-25T08:35:06;8.52;;;6.43;;
32152;SDS011;18656;50.580;11.392;2022-08-25T08:37:37;12.05;;;6.65;;
32152;SDS011;18656;50.580;11.392;2022-08-25T08:40:07;11.10;;;7.00;;
32152;SDS011;18656;50.580;11.392;2022-08-25T08:42:54;9.57;;;5.97;;
32152;SDS011;18656;50.580;11.392;2022-08-25T08:45:31;7.68;;;4.90;;
32152;SDS011;18656;50.580;11.392;2022-08-25T08:56:24;7.15;;;5.45;;
32152;SDS011;18656;50.580;11.392;2022-08-25T09:01:46;5.00;;;4.50;;
32152;SDS011;18656;50.580;11.392;2022-08-25T09:04:21;8.02;;;5.05;;
32152;SDS011;18656;50.580;11.392;2022-08-25T09:06:53;6.18;;;5.22;;
32152;SDS011;18656;50.580;11.392;2022-08-25T09:09:27;9.40;;;5.57;;
32152;SDS011;18656;50.580;11.392;2022-08-25T09:17:27;11.20;;;6.22;;
32152;SDS011;18656;50.580;11.392;2022-08-25T09:20:25;6.80;;;6.00;;
32152;SDS011;18656;50.580;11.392;2022-08-25T09:23:06;14.52;;;7.78;;
32152;SDS011;18656;50.580;11.392;2022-08-25T09:25:47;8.27;;;5.93;;
32152;SDS011;18656;50.580;11.392;2022-08-25T09:30:52;20.58;;;7.57;;
32152;SDS011;18656;50.580;11.392;2022-08-25T09:33:24;9.63;;;6.57;;
32152;SDS011;18656;50.580;11.392;2022-08-25T09:35:54;10.52;;;7.32;;
32152;SDS011;18656;50.580;11.392;2022-08-25T09:38:23;12.60;;;6.82;;
32152;SDS011;18656;50.580;11.392;2022-08-25T09:40:55;9.77;;;7.13;;
32152;SDS011;18656;50.580;11.392;2022-08-25T09:46:13;10.35;;;5.78;;
32152;SDS011;18656;50.580;11.392;2022-08-25T09:51:26;9.23;;;5.50;;
32152;SDS011;18656;50.580;11.392;2022-08-25T09:56:48;7.65;;;6.13;;
32152;SDS011;18656;50.580;11.392;2022-08-25T09:59:17;7.13;;;5.07;;
32152;SDS011;18656;50.580;11.392;2022-08-25T10:01:48;13.10;;;6.13;;
32152;SDS011;18656;50.580;11.392;2022-08-25T10:04:31;10.45;;;6.65;;
32152;SDS011;18656;50.580;11.392;2022-08-25T10:07:00;5.78;;;5.15;;
32152;SDS011;18656;50.580;11.392;2022-08-25T10:09:30;10.77;;;6.68;;
32152;SDS011;18656;50.580;11.392;2022-08-25T10:12:00;8.43;;;6.25;;
32152;SDS011;18656;50.580;11.392;2022-08-25T10:22:38;7.60;;;6.13;;
32152;SDS011;18656;50.580;11.392;2022-08-25T10:25:07;10.80;;;7.00;;
32152;SDS011;18656;50.580;11.392;2022-08-25T10:41:13;11.85;;;6.85;;
32152;SDS011;18656;50.580;11.392;2022-08-25T10:43:44;12.65;;;8.30;;
32152;SDS011;18656;50.580;11.392;2022-08-25T10:46:35;9.70;;;7.45;;
32152;SDS011;18656;50.580;11.392;2022-08-25T10:49:18;11.30;;;5.80;;
32152;SDS011;18656;50.580;11.392;2022-08-25T10:54:22;8.10;;;7.05;;
32152;SDS011;18656;50.580;11.392;2022-08-25T11:02:28;10.77;;;6.65;;
32152;SDS011;18656;50.580;11.392;2022-08-25T11:05:29;10.85;;;6.70;;
32152;SDS011;18656;50.580;11.392;2022-08-25T11:08:16;14.95;;;6.75;;
32152;SDS011;18656;50.580;11.392;2022-08-25T11:10:50;7.07;;;6.15;;
32152;SDS011;18656;50.580;11.392;2022-08-25T11:13:24;8.93;;;6.05;;
32152;SDS011;18656;50.580;11.392;2022-08-25T11:16:10;7.78;;;5.40;;
32152;SDS011;18656;50.580;11.392;2022-08-25T11:18:49;7.00;;;4.88;;
32152;SDS011;18656;50.580;11.392;2022-08-25T11:21:19;6.22;;;5.15;;
32152;SDS011;18656;50.580;11.392;2022-08-25T11:23:51;10.27;;;5.10;;
32152;SDS011;18656;50.580;11.392;2022-08-25T11:26:25;7.57;;;5.35;;
32152;SDS011;18656;50.580;11.392;2022-08-25T11:29:08;14.15;;;5.38;;
32152;SDS011;18656;50.580;11.392;2022-08-25T11:31:48;8.90;;;5.25;;
32152;SDS011;18656;50.580;11.392;2022-08-25T11:34:19;17.05;;;5.85;;
32152;SDS011;18656;50.580;11.392;2022-08-25T11:36:55;5.75;;;4.82;;
32152;SDS011;18656;50.580;11.392;2022-08-25T11:50:08;6.82;;;4.88;;
32152;SDS011;18656;50.580;11.392;2022-08-25T11:52:56;9.32;;;4.85;;
32152;SDS011;18656;50.580;11.392;2022-08-25T11:58:39;6.55;;;4.82;;
32152;SDS011;18656;50.580;11.392;2022-08-25T12:07:15;14.20;;;5.40;;
32152;SDS011;18656;50.580;11.392;2022-08-25T12:14:55;12.07;;;4.57;;
32152;SDS011;18656;50.580;11.392;2022-08-25T12:17:39;7.55;;;4.50;;
32152;SDS011;18656;50.580;11.392;2022-08-25T12:20:07;7.45;;;4.50;;
32152;SDS011;18656;50.580;11.392;2022-08-25T12:25:21;7.95;;;4.97;;
32152;SDS011;18656;50.580;11.392;2022-08-25T12:28:02;11.95;;;5.20;;
32152;SDS011;18656;50.580;11.392;2022-08-25T12:30:40;8.30;;;4.72;;
32152;SDS011;18656;50.580;11.392;2022-08-25T12:35:37;7.57;;;4.57;;
32152;SDS011;18656;50.580;11.392;2022-08-25T12:43:03;11.98;;;4.88;;
32152;SDS011;18656;50.580;11.392;2022-08-25T12:45:37;9.73;;;4.78;;
32152;SDS011;18656;50.580;11.392;2022-08-25T12:51:45;6.32;;;4.63;;
32152;SDS011;18656;50.580;11.392;2022-08-25T12:56:19;7.82;;;4.72;;
32152;SDS011;18656;50.580;11.392;2022-08-25T13:01:37;9.30;;;4.82;;
32152;SDS011;18656;50.580;11.392;2022-08-25T13:06:58;5.72;;;4.40;;
32152;SDS011;18656;50.580;11.392;2022-08-25T13:09:48;6.10;;;4.18;;
32152;SDS011;18656;50.580;11.392;2022-08-25T13:12:36;7.30;;;4.38;;
32152;SDS011;18656;50.580;11.392;2022-08-25T13:15:07;6.65;;;4.78;;
32152;SDS011;18656;50.580;11.392;2022-08-25T13:17:37;6.20;;;4.72;;
32152;SDS011;18656;50.580;11.392;2022-08-25T13:20:11;6.55;;;4.53;;
32152;SDS011;18656;50.580;11.392;2022-08-25T13:22:46;6.47;;;4.90;;
32152;SDS011;18656;50.580;11.392;2022-08-25T13:25:23;5.60;;;4.55;;
32152;SDS011;18656;50.580;11.392;2022-08-25T13:27:58;4.97;;;4.47;;
32152;SDS011;18656;50.580;11.392;2022-08-25T13:30:27;6.38;;;4.53;;
32152;SDS011;18656;50.580;11.392;2022-08-25T13:32:55;8.32;;;5.40;;
32152;SDS011;18656;50.580;11.392;2022-08-25T13:35:24;7.32;;;5.05;;
32152;SDS011;18656;50.580;11.392;2022-08-25T13:38:14;6.45;;;4.40;;
32152;SDS011;18656;50.580;11.392;2022-08-25T13:40:42;8.25;;;4.75;;
32152;SDS011;18656;50.580;11.392;2022-08-25T13:43:10;7.50;;;4.97;;
32152;SDS011;18656;50.580;11.392;2022-08-25T13:45:41;5.72;;;4.88;;
32152;SDS011;18656;50.580;11.392;2022-08-25T13:48:11;5.30;;;4.05;;
32152;SDS011;18656;50.580;11.392;2022-08-25T13:50:48;4.95;;;4.45;;
32152;SDS011;18656;50.580;11.392;2022-08-25T13:53:24;8.10;;;4.88;;
32152;SDS011;18656;50.580;11.392;2022-08-25T13:55:57;6.53;;;4.47;;
32152;SDS011;18656;50.580;11.392;2022-08-25T13:58:26;4.78;;;4.47;;
32152;SDS011;18656;50.580;11.392;2022-08-25T14:04:19;6.93;;;5.15;;
32152;SDS011;18656;50.580;11.392;2022-08-25T14:06:47;8.05;;;5.00;;
32152;SDS011;18656;50.580;11.392;2022-08-25T14:09:16;5.22;;;4.72;;
32152;SDS011;18656;50.580;11.392;2022-08-25T14:11:56;5.50;;;5.00;;
32152;SDS011;18656;50.580;11.392;2022-08-25T14:19:22;5.72;;;5.10;;
32152;SDS011;18656;50.580;11.392;2022-08-25T14:21:50;8.45;;;6.00;;
32152;SDS011;18656;50.580;11.392;2022-08-25T14:24:22;7.38;;;5.78;;
32152;SDS011;18656;50.580;11.392;2022-08-25T14:26:49;6.07;;;5.50;;
32152;SDS011;18656;50.580;11.392;2022-08-25T14:29:20;8.98;;;5.50;;
32152;SDS011;18656;50.580;11.392;2022-08-25T14:31:47;8.18;;;5.35;;
32152;SDS011;18656;50.580;11.392;2022-08-25T14:34:16;9.82;;;6.18;;
32152;SDS011;18656;50.580;11.392;2022-08-25T14:36:45;6.45;;;4.70;;
32152;SDS011;18656;50.580;11.392;2022-08-25T14:39:13;10.10;;;5.40;;
32152;SDS011;18656;50.580;11.392;2022-08-25T14:41:41;5.38;;;4.88;;
32152;SDS011;18656;50.580;11.392;2022-08-25T14:44:18;5.80;;;5.10;;
32152;SDS011;18656;50.580;11.392;2022-08-25T14:46:50;7.18;;;5.38;;
32152;SDS011;18656;50.580;11.392;2022-08-25T14:49:19;5.90;;;5.40;;
32152;SDS011;18656;50.580;11.392;2022-08-25T14:51:50;6.05;;;5.43;;
32152;SDS011;18656;50.580;11.392;2022-08-25T14:54:17;6.00;;;5.32;;
32152;SDS011;18656;50.580;11.392;2022-08-25T14:56:48;8.95;;;5.88;;
32152;SDS011;18656;50.580;11.392;2022-08-25T14:59:15;6.15;;;5.63;;
32152;SDS011;18656;50.580;11.392;2022-08-25T15:01:43;7.78;;;6.13;;
32152;SDS011;18656;50.580;11.392;2022-08-25T15:04:16;10.35;;;6.00;;
32152;SDS011;18656;50.580;11.392;2022-08-25T15:06:44;7.22;;;5.47;;
32152;SDS011;18656;50.580;11.392;2022-08-25T15:09:13;6.40;;;5.80;;
32152;SDS011;18656;50.580;11.392;2022-08-25T15:11:44;8.93;;;5.75;;
32152;SDS011;18656;50.580;11.392;2022-08-25T15:14:12;7.88;;;5.70;;
32152;SDS011;18656;50.580;11.392;2022-08-25T15:16:43;7.28;;;6.03;;
32152;SDS011;18656;50.580;11.392;2022-08-25T15:19:11;8.77;;;6.30;;
32152;SDS011;18656;50.580;11.392;2022-08-25T15:21:43;10.07;;;6.68;;
32152;SDS011;18656;50.580;11.392;2022-08-25T15:24:11;11.15;;;6.38;;
32152;SDS011;18656;50.580;11.392;2022-08-25T15:26:51;14.32;;;6.57;;
32152;SDS011;18656;50.580;11.392;2022-08-25T15:29:20;11.48;;;5.97;;
32152;SDS011;18656;50.580;11.392;2022-08-25T15:31:48;12.13;;;6.72;;
32152;SDS011;18656;50.580;11.392;2022-08-25T15:34:16;8.95;;;6.70;;
32152;SDS011;18656;50.580;11.392;2022-08-25T15:36:44;11.88;;;6.45;;
32152;SDS011;18656;50.580;11.392;2022-08-25T15:39:12;9.07;;;6.30;;
32152;SDS011;18656;50.580;11.392;2022-08-25T15:41:44;11.18;;;6.55;;
32152;SDS011;18656;50.580;11.392;2022-08-25T15:44:15;10.38;;;6.28;;
32152;SDS011;18656;50.580;11.392;2022-08-25T15:46:42;10.85;;;6.10;;
32152;SDS011;18656;50.580;11.392;2022-08-25T15:49:15;7.65;;;5.93;;
32152;SDS011;18656;50.580;11.392;2022-08-25T15:51:48;8.43;;;5.70;;
32152;SDS011;18656;50.580;11.392;2022-08-25T15:54:16;8.50;;;5.95;;
32152;SDS011;18656;50.580;11.392;2022-08-25T15:56:43;10.18;;;6.78;;
32152;SDS011;18656;50.580;11.392;2022-08-25T15:59:11;10.77;;;6.22;;
32152;SDS011;18656;50.580;11.392;2022-08-25T16:01:39;7.13;;;5.85;;
32152;SDS011;18656;50.580;11.392;2022-08-25T16:04:07;11.60;;;5.80;;
32152;SDS011;18656;50.580;11.392;2022-08-25T16:06:35;10.23;;;6.15;;
32152;SDS011;18656;50.580;11.392;2022-08-25T16:09:03;14.63;;;6.40;;
32152;SDS011;18656;50.580;11.392;2022-08-25T16:11:30;8.15;;;5.75;;
32152;SDS011;18656;50.580;11.392;2022-08-25T16:14:00;9.85;;;5.82;;
32152;SDS011;18656;50.580;11.392;2022-08-25T16:16:28;10.68;;;6.43;;
32152;SDS011;18656;50.580;11.392;2022-08-25T16:18:57;12.52;;;5.57;;
32152;SDS011;18656;50.580;11.392;2022-08-25T16:21:26;12.95;;;5.10;;
32152;SDS011;18656;50.580;11.392;2022-08-25T16:23:56;10.85;;;6.00;;
32152;SDS011;18656;50.580;11.392;2022-08-25T16:26:27;12.57;;;6.50;;
32152;SDS011;18656;50.580;11.392;2022-08-25T16:28:55;9.85;;;5.88;;
32152;SDS011;18656;50.580;11.392;2022-08-25T16:31:22;12.02;;;5.60;;
32152;SDS011;18656;50.580;11.392;2022-08-25T16:33:50;14.77;;;6.65;;
32152;SDS011;18656;50.580;11.392;2022-08-25T16:38:52;9.77;;;5.53;;
32152;SDS011;18656;50.580;11.392;2022-08-25T16:41:22;12.00;;;6.38;;
32152;SDS011;18656;50.580;11.392;2022-08-25T16:43:50;11.45;;;5.65;;
32152;SDS011;18656;50.580;11.392;2022-08-25T16:46:18;12.05;;;5.35;;